sensor_id;sensor_type;location;lat;lon;timestamp;P1;durP1;ratioP1;P2;durP2;ratioP2
78207;SDS011;67481;50.244;18.288;2023-10-19T00:02:33;73.57;;;31.60;;
78207;SDS011;67481;50.244;18.288;2023-10-19T00:05:20;67.78;;;30.70;;
78207;SDS011;67481;50.244;18.288;2023-10-19T00:08:06;70.05;;;30.10;;
78207;SDS011;67481;50.244;18.288;2023-10-19T00:10:58;74.75;;;32.05;;
78207;SDS011;67481;50.244;18.288;2023-10-19T00:13:54;73.43;;;31.92;;
78207;SDS011;67481;50.244;18.288;2023-10-19T00:16:44;67.63;;;29.83;;
78207;SDS011;67481;50.244;18.288;2023-10-19T00:19:36;66.68;;;28.40;;
78207;SDS011;67481;50.244;18.288;2023-10-19T00:22:25;70.70;;;28.77;;
78207;SDS011;67481;50.244;18.288;2023-10-19T00:25:17;71.35;;;28.52;;
78207;SDS011;67481;50.244;18.288;2023-10-19T00:28:04;68.22;;;27.95;;
78207;SDS011;67481;50.244;18.288;2023-10-19T00:30:51;62.90;;;27.45;;
78207;SDS011;67481;50.244;18.288;2023-10-19T00:33:39;67.95;;;27.55;;
78207;SDS011;67481;50.244;18.288;2023-10-19T00:36:25;67.82;;;27.63;;
78207;SDS011;67481;50.244;18.288;2023-10-19T00:39:16;67.88;;;27.70;;
78207;SDS011;67481;50.244;18.288;2023-10-19T00:42:09;62.15;;;25.92;;
78207;SDS011;67481;50.244;18.288;2023-10-19T00:44:59;60.88;;;25.63;;
78207;SDS011;67481;50.244;18.288;2023-10-19T00:47:50;63.75;;;24.77;;
78207;SDS011;67481;50.244;18.288;2023-10-19T00:50:39;60.70;;;26.00;;
78207;SDS011;67481;50.244;18.288;2023-10-19T00:53:26;60.95;;;25.52;;
78207;SDS011;67481;50.244;18.288;2023-10-19T00:56:13;55.00;;;25.83;;
78207;SDS011;67481;50.244;18.288;2023-10-19T00:59:03;57.38;;;26.10;;
78207;SDS011;67481;50.244;18.288;2023-10-19T01:01:59;61.13;;;25.92;;
78207;SDS011;67481;50.244;18.288;2023-10-19T01:05:04;61.33;;;26.85;;
78207;SDS011;67481;50.244;18.288;2023-10-19T01:07:51;59.13;;;25.63;;
78207;SDS011;67481;50.244;18.288;2023-10-19T01:10:46;59.10;;;25.85;;
78207;SDS011;67481;50.244;18.288;2023-10-19T01:13:38;61.38;;;26.23;;
78207;SDS011;67481;50.244;18.288;2023-10-19T01:16:24;57.15;;;26.13;;
78207;SDS011;67481;50.244;18.288;2023-10-19T01:19:12;62.00;;;25.98;;
78207;SDS011;67481;50.244;18.288;2023-10-19T01:21:58;56.60;;;26.25;;
78207;SDS011;67481;50.244;18.288;2023-10-19T01:24:49;60.97;;;26.30;;
78207;SDS011;67481;50.244;18.288;2023-10-19T01:27:35;54.28;;;23.88;;
78207;SDS011;67481;50.244;18.288;2023-10-19T01:30:22;61.83;;;27.45;;
78207;SDS011;67481;50.244;18.288;2023-10-19T01:33:08;59.03;;;29.00;;
78207;SDS011;67481;50.244;18.288;2023-10-19T01:35:59;65.00;;;27.10;;
78207;SDS011;67481;50.244;18.288;2023-10-19T01:38:58;57.55;;;24.80;;
78207;SDS011;67481;50.244;18.288;2023-10-19T01:41:48;50.45;;;24.50;;
78207;SDS011;67481;50.244;18.288;2023-10-19T01:44:36;59.13;;;25.25;;
78207;SDS011;67481;50.244;18.288;2023-10-19T01:47:22;59.03;;;25.17;;
78207;SDS011;67481;50.244;18.288;2023-10-19T01:50:10;60.28;;;25.42;;
78207;SDS011;67481;50.244;18.288;2023-10-19T01:53:05;55.80;;;26.20;;
78207;SDS011;67481;50.244;18.288;2023-10-19T01:56:00;59.83;;;25.85;;
78207;SDS011;67481;50.244;18.288;2023-10-19T01:58:47;59.58;;;23.75;;
78207;SDS011;67481;50.244;18.288;2023-10-19T02:01:34;55.25;;;25.10;;
78207;SDS011;67481;50.244;18.288;2023-10-19T02:04:23;61.75;;;26.00;;
78207;SDS011;67481;50.244;18.288;2023-10-19T02:10:04;55.72;;;23.60;;
78207;SDS011;67481;50.244;18.288;2023-10-19T02:12:54;55.90;;;24.20;;
78207;SDS011;67481;50.244;18.288;2023-10-19T02:15:42;62.55;;;25.63;;
78207;SDS011;67481;50.244;18.288;2023-10-19T02:18:29;60.75;;;27.40;;
78207;SDS011;67481;50.244;18.288;2023-10-19T02:21:16;58.83;;;27.45;;
78207;SDS011;67481;50.244;18.288;2023-10-19T02:24:14;60.85;;;28.00;;
78207;SDS011;67481;50.244;18.288;2023-10-19T02:27:01;59.60;;;28.45;;
78207;SDS011;67481;50.244;18.288;2023-10-19T02:29:48;69.93;;;28.52;;
78207;SDS011;67481;50.244;18.288;2023-10-19T02:32:34;67.75;;;27.52;;
78207;SDS011;67481;50.244;18.288;2023-10-19T02:35:21;53.50;;;25.42;;
78207;SDS011;67481;50.244;18.288;2023-10-19T02:38:08;63.50;;;27.08;;
78207;SDS011;67481;50.244;18.288;2023-10-19T02:40:54;59.97;;;26.45;;
78207;SDS011;67481;50.244;18.288;2023-10-19T02:43:40;62.45;;;26.75;;
78207;SDS011;67481;50.244;18.288;2023-10-19T02:46:30;57.60;;;26.52;;
78207;SDS011;67481;50.244;18.288;2023-10-19T02:49:18;60.45;;;27.45;;
78207;SDS011;67481;50.244;18.288;2023-10-19T02:52:08;60.47;;;24.80;;
78207;SDS011;67481;50.244;18.288;2023-10-19T02:54:58;58.10;;;25.25;;
78207;SDS011;67481;50.244;18.288;2023-10-19T02:57:46;57.00;;;26.00;;
78207;SDS011;67481;50.244;18.288;2023-10-19T03:00:32;57.25;;;24.60;;
78207;SDS011;67481;50.244;18.288;2023-10-19T03:03:20;56.83;;;25.15;;
78207;SDS011;67481;50.244;18.288;2023-10-19T03:06:07;57.33;;;24.42;;
78207;SDS011;67481;50.244;18.288;2023-10-19T03:08:53;54.83;;;25.15;;
78207;SDS011;67481;50.244;18.288;2023-10-19T03:11:50;65.82;;;31.67;;
78207;SDS011;67481;50.244;18.288;2023-10-19T03:14:41;65.63;;;28.48;;
78207;SDS011;67481;50.244;18.288;2023-10-19T03:17:27;73.18;;;28.88;;
78207;SDS011;67481;50.244;18.288;2023-10-19T03:20:15;57.40;;;24.52;;
78207;SDS011;67481;50.244;18.288;2023-10-19T03:25:54;58.50;;;24.95;;
78207;SDS011;67481;50.244;18.288;2023-10-19T03:29:01;53.85;;;25.10;;
78207;SDS011;67481;50.244;18.288;2023-10-19T03:31:53;53.10;;;24.05;;
78207;SDS011;67481;50.244;18.288;2023-10-19T03:34:39;54.78;;;24.30;;
78207;SDS011;67481;50.244;18.288;2023-10-19T03:37:29;53.35;;;25.40;;
78207;SDS011;67481;50.244;18.288;2023-10-19T03:40:17;58.00;;;23.90;;
78207;SDS011;67481;50.244;18.288;2023-10-19T03:43:12;53.45;;;25.17;;
78207;SDS011;67481;50.244;18.288;2023-10-19T03:46:07;49.13;;;23.80;;
78207;SDS011;67481;50.244;18.288;2023-10-19T03:49:14;57.53;;;25.98;;
78207;SDS011;67481;50.244;18.288;2023-10-19T03:52:03;101.43;;;42.45;;
78207;SDS011;67481;50.244;18.288;2023-10-19T03:54:55;58.50;;;28.10;;
78207;SDS011;67481;50.244;18.288;2023-10-19T03:57:44;54.35;;;24.90;;
78207;SDS011;67481;50.244;18.288;2023-10-19T04:00:41;54.60;;;24.42;;
78207;SDS011;67481;50.244;18.288;2023-10-19T04:03:27;53.30;;;26.02;;
78207;SDS011;67481;50.244;18.288;2023-10-19T04:06:16;57.50;;;24.70;;
78207;SDS011;67481;50.244;18.288;2023-10-19T04:09:06;48.97;;;23.10;;
78207;SDS011;67481;50.244;18.288;2023-10-19T04:11:51;49.28;;;23.08;;
78207;SDS011;67481;50.244;18.288;2023-10-19T04:14:38;48.28;;;21.75;;
78207;SDS011;67481;50.244;18.288;2023-10-19T04:17:25;55.05;;;24.35;;
78207;SDS011;67481;50.244;18.288;2023-10-19T04:20:12;49.58;;;22.48;;
78207;SDS011;67481;50.244;18.288;2023-10-19T04:23:14;55.97;;;25.20;;
78207;SDS011;67481;50.244;18.288;2023-10-19T04:26:02;58.22;;;24.90;;
78207;SDS011;67481;50.244;18.288;2023-10-19T04:28:56;54.33;;;25.15;;
78207;SDS011;67481;50.244;18.288;2023-10-19T04:31:43;57.92;;;25.27;;
78207;SDS011;67481;50.244;18.288;2023-10-19T04:34:42;62.78;;;28.58;;
78207;SDS011;67481;50.244;18.288;2023-10-19T04:37:28;64.25;;;27.67;;
78207;SDS011;67481;50.244;18.288;2023-10-19T04:40:15;55.97;;;26.17;;
78207;SDS011;67481;50.244;18.288;2023-10-19T04:43:01;52.45;;;24.80;;
78207;SDS011;67481;50.244;18.288;2023-10-19T04:45:51;53.60;;;26.05;;
78207;SDS011;67481;50.244;18.288;2023-10-19T04:48:40;51.47;;;22.33;;
78207;SDS011;67481;50.244;18.288;2023-10-19T04:51:29;48.47;;;22.08;;
78207;SDS011;67481;50.244;18.288;2023-10-19T04:54:17;46.47;;;22.83;;
78207;SDS011;67481;50.244;18.288;2023-10-19T04:57:03;63.08;;;24.83;;
78207;SDS011;67481;50.244;18.288;2023-10-19T04:59:48;51.85;;;21.95;;
78207;SDS011;67481;50.244;18.288;2023-10-19T05:02:35;50.65;;;22.58;;
78207;SDS011;67481;50.244;18.288;2023-10-19T05:05:21;46.83;;;22.13;;
78207;SDS011;67481;50.244;18.288;2023-10-19T05:08:08;56.33;;;23.98;;
78207;SDS011;67481;50.244;18.288;2023-10-19T05:10:54;54.58;;;23.63;;
78207;SDS011;67481;50.244;18.288;2023-10-19T05:13:40;47.85;;;21.48;;
78207;SDS011;67481;50.244;18.288;2023-10-19T05:16:26;46.30;;;22.13;;
78207;SDS011;67481;50.244;18.288;2023-10-19T05:19:12;47.60;;;21.58;;
78207;SDS011;67481;50.244;18.288;2023-10-19T05:21:59;42.20;;;19.75;;
78207;SDS011;67481;50.244;18.288;2023-10-19T05:24:46;42.88;;;19.88;;
78207;SDS011;67481;50.244;18.288;2023-10-19T05:27:33;43.45;;;19.63;;
78207;SDS011;67481;50.244;18.288;2023-10-19T05:30:19;44.88;;;21.23;;
78207;SDS011;67481;50.244;18.288;2023-10-19T05:33:08;48.65;;;21.70;;
78207;SDS011;67481;50.244;18.288;2023-10-19T05:35:55;44.47;;;20.80;;
78207;SDS011;67481;50.244;18.288;2023-10-19T05:38:41;36.97;;;18.13;;
78207;SDS011;67481;50.244;18.288;2023-10-19T05:41:28;42.42;;;19.50;;
78207;SDS011;67481;50.244;18.288;2023-10-19T05:44:16;41.45;;;19.42;;
78207;SDS011;67481;50.244;18.288;2023-10-19T05:47:02;42.10;;;19.33;;
78207;SDS011;67481;50.244;18.288;2023-10-19T05:49:49;41.25;;;18.52;;
78207;SDS011;67481;50.244;18.288;2023-10-19T05:52:35;40.38;;;20.48;;
78207;SDS011;67481;50.244;18.288;2023-10-19T05:55:21;44.22;;;20.67;;
78207;SDS011;67481;50.244;18.288;2023-10-19T05:58:07;40.90;;;19.75;;
78207;SDS011;67481;50.244;18.288;2023-10-19T06:00:57;39.15;;;18.67;;
78207;SDS011;67481;50.244;18.288;2023-10-19T06:03:44;38.72;;;18.83;;
78207;SDS011;67481;50.244;18.288;2023-10-19T06:06:30;44.72;;;20.10;;
78207;SDS011;67481;50.244;18.288;2023-10-19T06:09:17;41.80;;;19.90;;
78207;SDS011;67481;50.244;18.288;2023-10-19T06:12:04;41.35;;;19.77;;
78207;SDS011;67481;50.244;18.288;2023-10-19T06:14:50;42.60;;;20.17;;
78207;SDS011;67481;50.244;18.288;2023-10-19T06:17:37;62.67;;;26.30;;
78207;SDS011;67481;50.244;18.288;2023-10-19T06:20:27;49.20;;;21.98;;
78207;SDS011;67481;50.244;18.288;2023-10-19T06:23:13;43.63;;;20.10;;
78207;SDS011;67481;50.244;18.288;2023-10-19T06:25:59;42.55;;;20.38;;
78207;SDS011;67481;50.244;18.288;2023-10-19T06:28:49;41.75;;;20.15;;
78207;SDS011;67481;50.244;18.288;2023-10-19T06:31:36;39.10;;;19.30;;
78207;SDS011;67481;50.244;18.288;2023-10-19T06:34:22;39.53;;;18.52;;
78207;SDS011;67481;50.244;18.288;2023-10-19T06:37:08;40.42;;;18.63;;
78207;SDS011;67481;50.244;18.288;2023-10-19T06:39:56;38.92;;;18.70;;
78207;SDS011;67481;50.244;18.288;2023-10-19T06:42:42;43.17;;;20.58;;
78207;SDS011;67481;50.244;18.288;2023-10-19T06:45:31;41.22;;;19.95;;
78207;SDS011;67481;50.244;18.288;2023-10-19T06:51:06;38.83;;;19.38;;
78207;SDS011;67481;50.244;18.288;2023-10-19T06:53:52;38.78;;;18.95;;
78207;SDS011;67481;50.244;18.288;2023-10-19T06:56:38;41.45;;;19.02;;
78207;SDS011;67481;50.244;18.288;2023-10-19T06:59:25;39.60;;;18.52;;
78207;SDS011;67481;50.244;18.288;2023-10-19T07:02:11;38.55;;;18.90;;
78207;SDS011;67481;50.244;18.288;2023-10-19T07:04:58;38.15;;;16.90;;
78207;SDS011;67481;50.244;18.288;2023-10-19T07:07:45;36.47;;;17.38;;
78207;SDS011;67481;50.244;18.288;2023-10-19T07:10:37;39.30;;;17.70;;
78207;SDS011;67481;50.244;18.288;2023-10-19T07:13:23;38.92;;;18.05;;
78207;SDS011;67481;50.244;18.288;2023-10-19T07:16:12;40.70;;;18.40;;
78207;SDS011;67481;50.244;18.288;2023-10-19T07:18:58;39.25;;;17.58;;
78207;SDS011;67481;50.244;18.288;2023-10-19T07:21:46;36.08;;;17.70;;
78207;SDS011;67481;50.244;18.288;2023-10-19T07:24:34;34.05;;;16.58;;
78207;SDS011;67481;50.244;18.288;2023-10-19T07:27:22;37.03;;;17.63;;
78207;SDS011;67481;50.244;18.288;2023-10-19T07:30:21;37.35;;;18.52;;
78207;SDS011;67481;50.244;18.288;2023-10-19T07:33:11;46.65;;;20.35;;
78207;SDS011;67481;50.244;18.288;2023-10-19T07:36:11;51.97;;;21.92;;
78207;SDS011;67481;50.244;18.288;2023-10-19T07:38:59;56.90;;;23.38;;
78207;SDS011;67481;50.244;18.288;2023-10-19T07:41:45;61.85;;;22.38;;
78207;SDS011;67481;50.244;18.288;2023-10-19T07:44:32;54.15;;;22.42;;
78207;SDS011;67481;50.244;18.288;2023-10-19T07:47:19;41.90;;;18.13;;
78207;SDS011;67481;50.244;18.288;2023-10-19T07:50:05;37.75;;;16.77;;
78207;SDS011;67481;50.244;18.288;2023-10-19T07:52:57;35.50;;;16.95;;
78207;SDS011;67481;50.244;18.288;2023-10-19T07:55:44;55.45;;;20.20;;
78207;SDS011;67481;50.244;18.288;2023-10-19T07:58:30;54.85;;;22.52;;
78207;SDS011;67481;50.244;18.288;2023-10-19T08:01:17;54.50;;;25.63;;
78207;SDS011;67481;50.244;18.288;2023-10-19T08:04:03;76.78;;;31.98;;
78207;SDS011;67481;50.244;18.288;2023-10-19T08:06:52;54.65;;;24.80;;
78207;SDS011;67481;50.244;18.288;2023-10-19T08:09:38;50.22;;;23.90;;
78207;SDS011;67481;50.244;18.288;2023-10-19T08:12:25;35.03;;;16.52;;
78207;SDS011;67481;50.244;18.288;2023-10-19T08:15:12;34.60;;;17.33;;
78207;SDS011;67481;50.244;18.288;2023-10-19T08:17:59;35.28;;;16.42;;
78207;SDS011;67481;50.244;18.288;2023-10-19T08:20:45;32.88;;;15.82;;
78207;SDS011;67481;50.244;18.288;2023-10-19T08:23:32;37.35;;;16.90;;
78207;SDS011;67481;50.244;18.288;2023-10-19T08:26:18;35.25;;;16.35;;
78207;SDS011;67481;50.244;18.288;2023-10-19T08:29:04;31.75;;;14.90;;
78207;SDS011;67481;50.244;18.288;2023-10-19T08:31:58;36.25;;;16.52;;
78207;SDS011;67481;50.244;18.288;2023-10-19T08:34:46;37.80;;;16.75;;
78207;SDS011;67481;50.244;18.288;2023-10-19T08:37:32;36.53;;;16.95;;
78207;SDS011;67481;50.244;18.288;2023-10-19T08:40:18;32.70;;;16.92;;
78207;SDS011;67481;50.244;18.288;2023-10-19T08:45:53;35.33;;;16.08;;
78207;SDS011;67481;50.244;18.288;2023-10-19T08:48:41;36.33;;;18.48;;
78207;SDS011;67481;50.244;18.288;2023-10-19T08:51:27;40.42;;;20.73;;
78207;SDS011;67481;50.244;18.288;2023-10-19T08:54:14;38.42;;;18.73;;
78207;SDS011;67481;50.244;18.288;2023-10-19T08:57:00;51.03;;;27.52;;
78207;SDS011;67481;50.244;18.288;2023-10-19T08:59:47;45.72;;;23.70;;
78207;SDS011;67481;50.244;18.288;2023-10-19T09:02:34;74.32;;;37.95;;
78207;SDS011;67481;50.244;18.288;2023-10-19T09:05:20;50.25;;;25.08;;
78207;SDS011;67481;50.244;18.288;2023-10-19T09:08:08;44.55;;;21.13;;
78207;SDS011;67481;50.244;18.288;2023-10-19T09:10:55;61.88;;;27.42;;
78207;SDS011;67481;50.244;18.288;2023-10-19T09:13:46;46.95;;;22.05;;
78207;SDS011;67481;50.244;18.288;2023-10-19T09:16:36;59.13;;;28.98;;
78207;SDS011;67481;50.244;18.288;2023-10-19T09:22:34;44.85;;;20.23;;
78207;SDS011;67481;50.244;18.288;2023-10-19T09:25:22;45.88;;;21.25;;
78207;SDS011;67481;50.244;18.288;2023-10-19T09:28:08;45.20;;;22.38;;
78207;SDS011;67481;50.244;18.288;2023-10-19T09:30:56;60.45;;;25.17;;
78207;SDS011;67481;50.244;18.288;2023-10-19T09:33:46;46.72;;;21.65;;
78207;SDS011;67481;50.244;18.288;2023-10-19T09:36:33;54.33;;;23.15;;
78207;SDS011;67481;50.244;18.288;2023-10-19T09:39:20;57.80;;;23.55;;
78207;SDS011;67481;50.244;18.288;2023-10-19T09:42:07;47.55;;;21.35;;
78207;SDS011;67481;50.244;18.288;2023-10-19T09:44:59;49.83;;;21.58;;
78207;SDS011;67481;50.244;18.288;2023-10-19T09:47:51;176.00;;;56.92;;
78207;SDS011;67481;50.244;18.288;2023-10-19T09:50:38;161.15;;;52.13;;
78207;SDS011;67481;50.244;18.288;2023-10-19T09:53:28;81.20;;;31.67;;
78207;SDS011;67481;50.244;18.288;2023-10-19T09:56:17;85.25;;;34.00;;
78207;SDS011;67481;50.244;18.288;2023-10-19T09:59:11;147.18;;;50.00;;
78207;SDS011;67481;50.244;18.288;2023-10-19T10:02:08;111.40;;;39.13;;
78207;SDS011;67481;50.244;18.288;2023-10-19T10:05:00;148.07;;;49.65;;
78207;SDS011;67481;50.244;18.288;2023-10-19T10:07:46;109.05;;;40.15;;
78207;SDS011;67481;50.244;18.288;2023-10-19T10:10:34;164.98;;;59.17;;
78207;SDS011;67481;50.244;18.288;2023-10-19T10:16:13;137.68;;;55.13;;
78207;SDS011;67481;50.244;18.288;2023-10-19T10:19:00;133.55;;;57.00;;
78207;SDS011;67481;50.244;18.288;2023-10-19T10:25:00;63.47;;;31.77;;
78207;SDS011;67481;50.244;18.288;2023-10-19T10:27:50;64.75;;;31.98;;
78207;SDS011;67481;50.244;18.288;2023-10-19T10:30:37;59.58;;;30.67;;
78207;SDS011;67481;50.244;18.288;2023-10-19T10:33:53;86.80;;;45.78;;
78207;SDS011;67481;50.244;18.288;2023-10-19T10:37:01;63.25;;;33.08;;
78207;SDS011;67481;50.244;18.288;2023-10-19T10:39:49;54.15;;;28.73;;
78207;SDS011;67481;50.244;18.288;2023-10-19T10:42:35;53.08;;;26.90;;
78207;SDS011;67481;50.244;18.288;2023-10-19T10:45:21;56.20;;;29.83;;
78207;SDS011;67481;50.244;18.288;2023-10-19T10:48:13;51.13;;;28.65;;
78207;SDS011;67481;50.244;18.288;2023-10-19T10:51:00;64.30;;;32.60;;
78207;SDS011;67481;50.244;18.288;2023-10-19T10:53:47;125.25;;;54.78;;
78207;SDS011;67481;50.244;18.288;2023-10-19T10:56:39;100.15;;;51.25;;
78207;SDS011;67481;50.244;18.288;2023-10-19T10:59:27;62.05;;;34.25;;
78207;SDS011;67481;50.244;18.288;2023-10-19T11:02:19;50.33;;;28.67;;
78207;SDS011;67481;50.244;18.288;2023-10-19T11:05:07;48.17;;;26.05;;
78207;SDS011;67481;50.244;18.288;2023-10-19T11:08:05;48.35;;;25.02;;
78207;SDS011;67481;50.244;18.288;2023-10-19T11:10:52;43.63;;;23.70;;
78207;SDS011;67481;50.244;18.288;2023-10-19T11:13:39;42.63;;;23.58;;
78207;SDS011;67481;50.244;18.288;2023-10-19T11:16:26;50.92;;;27.80;;
78207;SDS011;67481;50.244;18.288;2023-10-19T11:19:11;45.00;;;25.73;;
78207;SDS011;67481;50.244;18.288;2023-10-19T11:21:58;59.60;;;28.38;;
78207;SDS011;67481;50.244;18.288;2023-10-19T11:24:45;54.10;;;28.42;;
78207;SDS011;67481;50.244;18.288;2023-10-19T11:27:31;47.33;;;26.60;;
78207;SDS011;67481;50.244;18.288;2023-10-19T11:30:23;46.22;;;27.35;;
78207;SDS011;67481;50.244;18.288;2023-10-19T11:33:10;62.22;;;30.95;;
78207;SDS011;67481;50.244;18.288;2023-10-19T11:35:58;65.38;;;35.65;;
78207;SDS011;67481;50.244;18.288;2023-10-19T11:38:44;56.42;;;33.45;;
78207;SDS011;67481;50.244;18.288;2023-10-19T11:41:32;61.60;;;33.47;;
78207;SDS011;67481;50.244;18.288;2023-10-19T11:44:18;61.83;;;31.70;;
78207;SDS011;67481;50.244;18.288;2023-10-19T11:47:06;54.55;;;29.83;;
78207;SDS011;67481;50.244;18.288;2023-10-19T11:49:53;46.42;;;26.52;;
78207;SDS011;67481;50.244;18.288;2023-10-19T11:52:41;55.33;;;32.25;;
78207;SDS011;67481;50.244;18.288;2023-10-19T11:55:29;53.45;;;27.92;;
78207;SDS011;67481;50.244;18.288;2023-10-19T11:58:15;59.30;;;29.27;;
78207;SDS011;67481;50.244;18.288;2023-10-19T12:01:02;54.35;;;28.13;;
78207;SDS011;67481;50.244;18.288;2023-10-19T12:03:58;52.17;;;26.75;;
78207;SDS011;67481;50.244;18.288;2023-10-19T12:06:45;49.65;;;26.88;;
78207;SDS011;67481;50.244;18.288;2023-10-19T12:09:34;51.25;;;27.33;;
78207;SDS011;67481;50.244;18.288;2023-10-19T12:12:21;53.15;;;30.80;;
78207;SDS011;67481;50.244;18.288;2023-10-19T12:15:07;53.38;;;30.15;;
78207;SDS011;67481;50.244;18.288;2023-10-19T12:17:54;53.03;;;27.73;;
78207;SDS011;67481;50.244;18.288;2023-10-19T12:20:40;56.70;;;28.38;;
78207;SDS011;67481;50.244;18.288;2023-10-19T12:23:30;60.72;;;30.88;;
78207;SDS011;67481;50.244;18.288;2023-10-19T12:26:17;50.83;;;26.95;;
78207;SDS011;67481;50.244;18.288;2023-10-19T12:29:03;66.72;;;37.10;;
78207;SDS011;67481;50.244;18.288;2023-10-19T12:31:52;59.25;;;31.77;;
78207;SDS011;67481;50.244;18.288;2023-10-19T12:34:42;75.07;;;43.03;;
78207;SDS011;67481;50.244;18.288;2023-10-19T12:37:29;65.55;;;34.42;;
78207;SDS011;67481;50.244;18.288;2023-10-19T12:40:13;57.40;;;28.70;;
78207;SDS011;67481;50.244;18.288;2023-10-19T12:43:14;58.22;;;29.10;;
78207;SDS011;67481;50.244;18.288;2023-10-19T12:46:00;65.68;;;33.97;;
78207;SDS011;67481;50.244;18.288;2023-10-19T12:48:47;68.38;;;35.58;;
78207;SDS011;67481;50.244;18.288;2023-10-19T12:51:33;60.45;;;30.67;;
78207;SDS011;67481;50.244;18.288;2023-10-19T12:54:19;70.65;;;39.10;;
78207;SDS011;67481;50.244;18.288;2023-10-19T12:57:06;62.67;;;38.45;;
78207;SDS011;67481;50.244;18.288;2023-10-19T12:59:55;75.45;;;42.35;;
78207;SDS011;67481;50.244;18.288;2023-10-19T13:02:40;76.60;;;38.88;;
78207;SDS011;67481;50.244;18.288;2023-10-19T13:05:27;83.32;;;42.83;;
78207;SDS011;67481;50.244;18.288;2023-10-19T13:08:13;64.82;;;35.60;;
78207;SDS011;67481;50.244;18.288;2023-10-19T13:10:59;65.22;;;34.35;;
78207;SDS011;67481;50.244;18.288;2023-10-19T13:14:00;85.90;;;39.92;;
78207;SDS011;67481;50.244;18.288;2023-10-19T13:16:47;77.53;;;36.75;;
78207;SDS011;67481;50.244;18.288;2023-10-19T13:19:37;59.00;;;28.73;;
78207;SDS011;67481;50.244;18.288;2023-10-19T13:22:23;54.15;;;28.27;;
78207;SDS011;67481;50.244;18.288;2023-10-19T13:25:10;66.50;;;32.25;;
78207;SDS011;67481;50.244;18.288;2023-10-19T13:27:58;65.65;;;33.10;;
78207;SDS011;67481;50.244;18.288;2023-10-19T13:30:48;57.20;;;28.95;;
78207;SDS011;67481;50.244;18.288;2023-10-19T13:33:40;69.53;;;35.85;;
78207;SDS011;67481;50.244;18.288;2023-10-19T13:36:27;79.32;;;42.97;;
78207;SDS011;67481;50.244;18.288;2023-10-19T13:39:13;137.70;;;71.93;;
78207;SDS011;67481;50.244;18.288;2023-10-19T13:42:03;105.43;;;52.15;;
78207;SDS011;67481;50.244;18.288;2023-10-19T13:44:50;110.13;;;55.65;;
78207;SDS011;67481;50.244;18.288;2023-10-19T13:50:24;190.93;;;84.90;;
78207;SDS011;67481;50.244;18.288;2023-10-19T13:53:11;89.32;;;46.63;;
78207;SDS011;67481;50.244;18.288;2023-10-19T13:55:57;80.10;;;40.17;;
78207;SDS011;67481;50.244;18.288;2023-10-19T13:58:43;87.07;;;43.08;;
78207;SDS011;67481;50.244;18.288;2023-10-19T14:01:32;105.60;;;56.08;;
78207;SDS011;67481;50.244;18.288;2023-10-19T14:04:19;85.53;;;44.88;;
78207;SDS011;67481;50.244;18.288;2023-10-19T14:07:05;76.50;;;41.78;;
78207;SDS011;67481;50.244;18.288;2023-10-19T14:09:51;70.60;;;37.55;;
78207;SDS011;67481;50.244;18.288;2023-10-19T14:12:37;69.35;;;36.83;;
78207;SDS011;67481;50.244;18.288;2023-10-19T14:15:27;74.28;;;39.33;;
78207;SDS011;67481;50.244;18.288;2023-10-19T14:18:14;76.28;;;39.67;;
78207;SDS011;67481;50.244;18.288;2023-10-19T14:21:09;74.70;;;39.00;;
78207;SDS011;67481;50.244;18.288;2023-10-19T14:23:57;74.32;;;39.72;;
78207;SDS011;67481;50.244;18.288;2023-10-19T14:26:48;71.63;;;40.33;;
78207;SDS011;67481;50.244;18.288;2023-10-19T14:29:34;76.30;;;43.33;;
78207;SDS011;67481;50.244;18.288;2023-10-19T14:32:20;91.28;;;47.38;;
78207;SDS011;67481;50.244;18.288;2023-10-19T14:35:10;94.85;;;48.97;;
78207;SDS011;67481;50.244;18.288;2023-10-19T14:37:57;103.10;;;46.85;;
78207;SDS011;67481;50.244;18.288;2023-10-19T14:40:46;103.28;;;47.05;;
78207;SDS011;67481;50.244;18.288;2023-10-19T14:43:34;79.50;;;40.58;;
78207;SDS011;67481;50.244;18.288;2023-10-19T14:46:21;77.25;;;39.60;;
78207;SDS011;67481;50.244;18.288;2023-10-19T14:49:09;75.53;;;41.30;;
78207;SDS011;67481;50.244;18.288;2023-10-19T14:52:01;89.65;;;46.05;;
78207;SDS011;67481;50.244;18.288;2023-10-19T14:54:50;79.68;;;45.38;;
78207;SDS011;67481;50.244;18.288;2023-10-19T15:00:26;79.00;;;39.33;;
78207;SDS011;67481;50.244;18.288;2023-10-19T15:03:20;94.18;;;44.20;;
78207;SDS011;67481;50.244;18.288;2023-10-19T15:06:07;136.43;;;62.83;;
78207;SDS011;67481;50.244;18.288;2023-10-19T15:08:55;161.63;;;70.97;;
78207;SDS011;67481;50.244;18.288;2023-10-19T15:11:43;136.48;;;61.60;;
78207;SDS011;67481;50.244;18.288;2023-10-19T15:14:30;95.95;;;44.28;;
78207;SDS011;67481;50.244;18.288;2023-10-19T15:17:16;77.70;;;39.42;;
78207;SDS011;67481;50.244;18.288;2023-10-19T15:20:03;96.03;;;44.55;;
78207;SDS011;67481;50.244;18.288;2023-10-19T15:22:55;87.93;;;44.53;;
78207;SDS011;67481;50.244;18.288;2023-10-19T15:25:44;78.90;;;41.83;;
78207;SDS011;67481;50.244;18.288;2023-10-19T15:28:30;138.23;;;57.28;;
78207;SDS011;67481;50.244;18.288;2023-10-19T15:31:19;125.78;;;59.67;;
78207;SDS011;67481;50.244;18.288;2023-10-19T15:34:07;111.80;;;55.60;;
78207;SDS011;67481;50.244;18.288;2023-10-19T15:36:54;93.47;;;49.63;;
78207;SDS011;67481;50.244;18.288;2023-10-19T15:39:47;120.50;;;60.60;;
78207;SDS011;67481;50.244;18.288;2023-10-19T15:42:33;173.82;;;81.22;;
78207;SDS011;67481;50.244;18.288;2023-10-19T15:45:21;160.18;;;76.53;;
78207;SDS011;67481;50.244;18.288;2023-10-19T15:48:08;138.45;;;61.45;;
78207;SDS011;67481;50.244;18.288;2023-10-19T15:50:57;206.32;;;89.13;;
78207;SDS011;67481;50.244;18.288;2023-10-19T15:53:42;139.85;;;70.63;;
78207;SDS011;67481;50.244;18.288;2023-10-19T15:56:28;256.88;;;113.78;;
78207;SDS011;67481;50.244;18.288;2023-10-19T15:59:15;122.32;;;63.58;;
78207;SDS011;67481;50.244;18.288;2023-10-19T16:02:02;130.13;;;64.35;;
78207;SDS011;67481;50.244;18.288;2023-10-19T16:04:48;162.00;;;63.95;;
78207;SDS011;67481;50.244;18.288;2023-10-19T16:07:34;133.10;;;59.55;;
78207;SDS011;67481;50.244;18.288;2023-10-19T16:10:21;157.15;;;70.38;;
78207;SDS011;67481;50.244;18.288;2023-10-19T16:13:08;170.48;;;72.03;;
78207;SDS011;67481;50.244;18.288;2023-10-19T16:15:55;194.27;;;82.40;;
78207;SDS011;67481;50.244;18.288;2023-10-19T16:18:52;156.27;;;67.43;;
78207;SDS011;67481;50.244;18.288;2023-10-19T16:21:42;150.55;;;68.93;;
78207;SDS011;67481;50.244;18.288;2023-10-19T16:24:32;161.52;;;72.63;;
78207;SDS011;67481;50.244;18.288;2023-10-19T16:27:20;105.80;;;52.33;;
78207;SDS011;67481;50.244;18.288;2023-10-19T16:30:07;114.45;;;52.70;;
78207;SDS011;67481;50.244;18.288;2023-10-19T16:36:19;106.10;;;50.75;;
78207;SDS011;67481;50.244;18.288;2023-10-19T16:39:07;110.50;;;55.15;;